createdAt,value
2019-03-23T00:00:42.534Z,15.40
2019-03-23T00:03:10.958Z,16.32
2019-03-23T00:05:39.478Z,15.00
2019-03-23T00:08:08.070Z,14.93
2019-03-23T00:10:36.621Z,14.80
2019-03-23T00:13:05.203Z,14.93
2019-03-23T00:15:33.787Z,14.10
2019-03-23T00:18:02.318Z,16.48
2019-03-23T00:20:30.922Z,14.93
2019-03-23T00:22:59.429Z,16.25
2019-03-23T00:25:27.976Z,15.93
2019-03-23T00:27:56.407Z,14.95
2019-03-23T00:30:24.842Z,14.80
2019-03-23T00:32:53.345Z,14.73
2019-03-23T00:35:22.035Z,14.68
2019-03-23T00:37:50.597Z,13.53
2019-03-23T00:40:19.171Z,14.00
2019-03-23T00:42:47.675Z,15.25
2019-03-23T00:45:16.262Z,15.55
2019-03-23T00:47:44.742Z,15.18
2019-03-23T00:50:13.313Z,14.95
2019-03-23T00:52:41.907Z,14.20
2019-03-23T00:55:10.497Z,15.58
2019-03-23T00:57:39.042Z,12.37
2019-03-23T01:00:10.429Z,12.82
2019-03-23T01:02:39.000Z,13.38
2019-03-23T01:05:08.513Z,14.07
2019-03-23T01:07:37.190Z,15.00
2019-03-23T01:10:08.924Z,14.60
2019-03-23T01:12:37.381Z,14.65
2019-03-23T01:15:08.280Z,15.08
2019-03-23T01:17:36.855Z,14.50
2019-03-23T01:20:08.101Z,14.40
2019-03-23T01:22:36.607Z,14.30
2019-03-23T01:25:06.380Z,13.43
2019-03-23T01:27:34.901Z,15.45
2019-03-23T01:30:05.264Z,14.43
2019-03-23T01:32:33.713Z,15.15
2019-03-23T01:35:02.255Z,15.32
2019-03-23T01:37:30.678Z,14.87
2019-03-23T01:39:59.206Z,14.10
2019-03-23T01:42:27.751Z,12.95
2019-03-23T01:44:56.279Z,13.05
2019-03-23T01:47:24.707Z,13.28
2019-03-23T01:49:53.329Z,13.15
2019-03-23T01:52:21.810Z,13.40
2019-03-23T01:54:50.304Z,12.20
2019-03-23T01:57:18.833Z,12.53
2019-03-23T01:59:47.441Z,13.10
2019-03-23T02:02:15.982Z,13.00
2019-03-23T02:04:44.619Z,13.05
2019-03-23T02:07:14.245Z,12.07
2019-03-23T02:09:43.012Z,13.25
2019-03-23T02:12:11.604Z,12.23
2019-03-23T02:14:40.176Z,12.18
2019-03-23T02:17:08.861Z,12.75
2019-03-23T02:19:37.336Z,12.65
2019-03-23T02:22:05.879Z,11.08
2019-03-23T02:24:34.471Z,11.90
2019-03-23T02:27:03.087Z,13.58
2019-03-23T02:29:31.633Z,12.85
2019-03-23T02:32:00.362Z,13.55
2019-03-23T02:34:28.863Z,10.60
2019-03-23T02:36:57.624Z,11.85
2019-03-23T02:39:26.187Z,12.65
2019-03-23T02:41:54.611Z,13.95
2019-03-23T02:44:23.275Z,13.22
2019-03-23T02:46:51.858Z,13.50
2019-03-23T02:49:20.455Z,11.80
2019-03-23T02:51:49.186Z,13.25
2019-03-23T02:54:17.704Z,12.80
2019-03-23T02:56:46.281Z,12.47
2019-03-23T02:59:14.860Z,11.73
2019-03-23T03:01:43.551Z,12.95
2019-03-23T03:04:12.133Z,13.00
2019-03-23T03:06:40.528Z,12.07
2019-03-23T03:09:08.960Z,13.48
2019-03-23T03:11:37.469Z,13.15
2019-03-23T03:14:05.836Z,11.38
2019-03-23T03:16:34.303Z,12.18
2019-03-23T03:19:02.847Z,11.40
2019-03-23T03:21:31.302Z,12.50
2019-03-23T03:23:59.660Z,13.60
2019-03-23T03:26:28.098Z,12.18
2019-03-23T03:28:56.462Z,12.60
2019-03-23T03:31:24.839Z,12.28
2019-03-23T03:33:53.337Z,12.82
2019-03-23T03:36:21.767Z,13.38
2019-03-23T03:38:50.206Z,13.28
2019-03-23T03:41:18.606Z,13.90
2019-03-23T03:43:47.117Z,13.95
2019-03-23T03:46:15.505Z,13.90
2019-03-23T03:48:43.936Z,12.68
2019-03-23T03:51:12.526Z,12.40
2019-03-23T03:53:41.031Z,12.37
2019-03-23T03:56:09.514Z,13.53
2019-03-23T03:58:37.993Z,13.43
2019-03-23T04:01:06.407Z,13.20
2019-03-23T04:03:34.803Z,15.18
2019-03-23T04:06:03.173Z,15.13
2019-03-23T04:08:31.658Z,15.43
2019-03-23T04:11:00.133Z,14.07
2019-03-23T04:13:28.480Z,15.70
2019-03-23T04:15:57.023Z,14.63
2019-03-23T04:18:25.485Z,14.98
2019-03-23T04:20:53.946Z,14.87
2019-03-23T04:23:22.474Z,15.38
2019-03-23T04:25:50.915Z,15.30
2019-03-23T04:28:19.294Z,14.73
2019-03-23T04:30:47.764Z,15.40
2019-03-23T04:33:16.185Z,15.65
2019-03-23T04:35:44.649Z,15.15
2019-03-23T04:38:22.175Z,15.80
2019-03-23T04:40:43.236Z,14.23
2019-03-23T04:43:11.655Z,15.23
2019-03-23T04:45:40.034Z,15.30
2019-03-23T04:48:08.455Z,15.53
2019-03-23T04:50:36.742Z,13.72
2019-03-23T04:53:05.207Z,14.13
2019-03-23T04:55:33.636Z,16.40
2019-03-23T04:58:01.992Z,13.50
2019-03-23T05:00:30.386Z,15.93
2019-03-23T05:02:58.748Z,14.98
2019-03-23T05:05:27.100Z,15.13
2019-03-23T05:07:55.430Z,14.63
2019-03-23T05:10:23.853Z,16.15
2019-03-23T05:12:52.400Z,15.65
2019-03-23T05:15:20.830Z,15.15
2019-03-23T05:17:49.205Z,15.55
2019-03-23T05:20:28.564Z,12.93
2019-03-23T05:22:56.961Z,14.25
2019-03-23T05:25:29.243Z,14.25
2019-03-23T05:27:58.342Z,12.45
2019-03-23T05:30:26.728Z,14.13
2019-03-23T05:32:55.157Z,16.20
2019-03-23T05:35:24.258Z,15.40
2019-03-23T05:37:52.723Z,14.75
2019-03-23T05:40:21.150Z,14.87
2019-03-23T05:42:49.653Z,14.50
2019-03-23T05:45:18.112Z,14.28
2019-03-23T05:47:46.542Z,13.38
2019-03-23T05:50:14.838Z,13.88
2019-03-23T05:52:43.364Z,14.30
2019-03-23T05:55:11.856Z,14.05
2019-03-23T05:57:40.301Z,13.00
2019-03-23T06:00:11.097Z,13.00
2019-03-23T06:02:39.539Z,13.65
2019-03-23T06:05:07.999Z,11.35
2019-03-23T06:07:36.495Z,12.98
2019-03-23T06:10:06.672Z,11.45
2019-03-23T06:12:35.207Z,13.20
2019-03-23T06:15:04.801Z,13.38
2019-03-23T06:17:33.301Z,14.03
2019-03-23T06:20:01.734Z,14.78
2019-03-23T06:22:30.178Z,13.30
2019-03-23T06:24:59.707Z,14.75
2019-03-23T06:27:28.041Z,14.53
2019-03-23T06:29:56.481Z,15.65
2019-03-23T06:32:24.929Z,15.65
2019-03-23T06:34:53.313Z,15.80
2019-03-23T06:37:21.896Z,15.35
2019-03-23T06:39:50.370Z,15.75
2019-03-23T06:42:18.913Z,16.32
2019-03-23T06:44:47.238Z,16.32
2019-03-23T06:47:15.708Z,16.82
2019-03-23T06:49:44.242Z,18.10
2019-03-23T06:52:12.632Z,17.95
2019-03-23T06:54:41.099Z,18.62
2019-03-23T06:57:09.517Z,17.73
2019-03-23T06:59:37.963Z,21.65
2019-03-23T07:02:06.400Z,20.90
2019-03-23T07:04:34.895Z,22.50
2019-03-23T07:07:03.444Z,18.15
2019-03-23T07:09:31.858Z,18.85
2019-03-23T07:12:00.294Z,20.12
2019-03-23T07:14:28.847Z,18.70
2019-03-23T07:16:57.274Z,20.52
2019-03-23T07:19:25.913Z,20.00
2019-03-23T07:21:54.336Z,19.27
2019-03-23T07:24:22.658Z,20.27
2019-03-23T07:26:51.183Z,19.57
2019-03-23T07:29:19.613Z,19.80
2019-03-23T07:31:47.975Z,19.85
2019-03-23T07:34:16.623Z,20.27
2019-03-23T07:36:44.982Z,21.57
2019-03-23T07:39:13.455Z,19.75
2019-03-23T07:41:41.973Z,21.25
2019-03-23T07:44:10.568Z,22.30
2019-03-23T07:46:38.982Z,21.50
2019-03-23T07:49:07.524Z,22.82
2019-03-23T07:51:35.981Z,21.75
2019-03-23T07:54:04.529Z,23.45
2019-03-23T07:56:33.046Z,23.42
2019-03-23T07:59:01.597Z,21.17
2019-03-23T08:01:30.015Z,21.12
2019-03-23T08:03:58.442Z,25.90
2019-03-23T08:06:26.916Z,23.50
2019-03-23T08:08:55.577Z,25.68
2019-03-23T08:11:24.045Z,23.45
2019-03-23T08:13:52.470Z,24.40
2019-03-23T08:16:20.893Z,24.65
2019-03-23T08:18:49.361Z,24.40
2019-03-23T08:21:17.749Z,23.77
2019-03-23T08:23:46.181Z,23.30
2019-03-23T08:26:14.594Z,22.93
2019-03-23T08:28:43.074Z,19.10
2019-03-23T08:31:11.496Z,24.85
2019-03-23T08:33:39.822Z,22.15
2019-03-23T08:36:08.259Z,21.33
2019-03-23T08:38:36.780Z,22.35
2019-03-23T08:41:05.243Z,23.57
2019-03-23T08:43:33.717Z,23.47
2019-03-23T08:46:03.290Z,22.50
2019-03-23T08:48:31.749Z,21.42
2019-03-23T08:51:00.181Z,22.37
2019-03-23T08:53:28.651Z,26.12
2019-03-23T08:55:57.063Z,22.62
2019-03-23T08:58:30.801Z,20.65
2019-03-23T09:00:59.533Z,21.20
2019-03-23T09:03:28.048Z,23.73
2019-03-23T09:05:56.430Z,24.45
2019-03-23T09:08:24.807Z,26.50
2019-03-23T09:10:53.276Z,26.93
2019-03-23T09:13:21.709Z,25.15
2019-03-23T09:15:50.234Z,27.67
2019-03-23T09:18:18.638Z,25.50
2019-03-23T09:20:47.026Z,24.12
2019-03-23T09:23:15.501Z,24.32
2019-03-23T09:25:45.714Z,26.42
2019-03-23T09:28:14.231Z,22.70
2019-03-23T09:30:42.701Z,24.23
2019-03-23T09:33:11.224Z,23.67
2019-03-23T09:35:39.677Z,25.68
2019-03-23T09:38:08.033Z,27.87
2019-03-23T09:40:36.513Z,21.90
2019-03-23T09:43:04.923Z,27.10
2019-03-23T09:45:33.300Z,25.75
2019-03-23T09:48:01.897Z,24.77
2019-03-23T09:50:30.388Z,26.33
2019-03-23T09:52:58.829Z,25.00
2019-03-23T09:55:28.654Z,22.40
2019-03-23T09:57:57.505Z,26.75
2019-03-23T10:00:25.860Z,28.65
2019-03-23T10:02:54.309Z,24.07
2019-03-23T10:05:22.851Z,27.75
2019-03-23T10:07:51.227Z,28.32
2019-03-23T10:10:21.966Z,28.77
2019-03-23T10:12:49.843Z,25.75
2019-03-23T10:15:19.318Z,27.85
2019-03-23T10:17:47.723Z,22.70
2019-03-23T10:20:16.052Z,24.75
2019-03-23T10:22:44.530Z,29.02
2019-03-23T10:25:12.892Z,31.23
2019-03-23T10:27:41.184Z,28.12
2019-03-23T10:30:10.499Z,29.12
2019-03-23T10:32:38.833Z,29.52
2019-03-23T10:35:08.100Z,31.80
2019-03-23T10:37:36.677Z,30.02
2019-03-23T10:40:09.955Z,29.18
2019-03-23T10:42:38.491Z,26.82
2019-03-23T10:45:07.585Z,29.82
2019-03-23T10:47:35.950Z,29.07
2019-03-23T10:50:05.516Z,28.20
2019-03-23T10:52:33.967Z,32.17
2019-03-23T10:55:02.491Z,30.72
2019-03-23T10:57:30.849Z,30.55
2019-03-23T10:59:59.169Z,30.90
2019-03-23T11:02:27.466Z,30.37
2019-03-23T11:04:55.787Z,29.77
2019-03-23T11:07:24.160Z,34.00
2019-03-23T11:09:52.498Z,30.02
2019-03-23T11:12:20.882Z,25.48
2019-03-23T11:14:49.302Z,24.15
2019-03-23T11:17:17.668Z,24.63
2019-03-23T11:19:46.063Z,30.52
2019-03-23T11:22:14.536Z,26.33
2019-03-23T11:24:42.940Z,26.00
2019-03-23T11:27:11.303Z,25.35
2019-03-23T11:29:39.711Z,27.65
2019-03-23T11:32:08.157Z,24.35
2019-03-23T11:34:36.513Z,21.12
2019-03-23T11:37:04.933Z,22.10
2019-03-23T11:39:33.320Z,26.00
2019-03-23T11:42:21.214Z,21.17
2019-03-23T11:44:49.629Z,25.17
2019-03-23T11:47:17.949Z,26.37
2019-03-23T11:49:46.361Z,26.87
2019-03-23T11:52:14.739Z,24.43
2019-03-23T11:54:43.119Z,26.60
2019-03-23T11:57:11.544Z,23.18
2019-03-23T11:59:40.024Z,22.00
2019-03-23T12:02:08.518Z,26.42
2019-03-23T12:04:36.922Z,26.10
2019-03-23T12:07:05.314Z,26.02
2019-03-23T12:09:33.980Z,24.35
2019-03-23T12:12:02.314Z,22.40
2019-03-23T12:14:30.744Z,19.07
2019-03-23T12:16:59.131Z,22.22
2019-03-23T12:19:27.526Z,22.42
2019-03-23T12:21:55.975Z,21.45
2019-03-23T12:24:24.442Z,20.15
2019-03-23T12:26:52.926Z,21.82
2019-03-23T12:29:21.352Z,20.23
2019-03-23T12:31:49.651Z,18.65
2019-03-23T12:34:18.092Z,16.37
2019-03-23T12:36:46.466Z,16.07
2019-03-23T12:39:14.871Z,15.23
2019-03-23T12:41:43.273Z,17.70
2019-03-23T12:44:12.708Z,17.30
2019-03-23T12:46:48.307Z,19.17
2019-03-23T12:49:30.689Z,20.10
2019-03-23T12:51:59.067Z,19.87
2019-03-23T12:54:27.502Z,20.68
2019-03-23T12:56:55.905Z,20.37
2019-03-23T12:59:24.316Z,18.05
2019-03-23T13:01:52.756Z,15.90
2019-03-23T13:04:21.101Z,18.87
2019-03-23T13:06:49.503Z,16.27
2019-03-23T13:09:17.942Z,16.40
2019-03-23T13:11:46.373Z,17.57
2019-03-23T13:14:14.783Z,16.52
2019-03-23T13:16:43.226Z,15.98
2019-03-23T13:19:11.614Z,17.48
2019-03-23T13:21:40.017Z,16.32
2019-03-23T13:24:08.468Z,18.10
2019-03-23T13:26:36.866Z,18.65
2019-03-23T13:29:05.347Z,17.50
2019-03-23T13:31:35.428Z,15.15
2019-03-23T13:34:03.744Z,18.23
2019-03-23T13:36:32.105Z,18.17
2019-03-23T13:39:00.513Z,17.27
2019-03-23T13:41:28.959Z,19.67
2019-03-23T13:43:57.313Z,21.45
2019-03-23T13:46:25.724Z,20.65
2019-03-23T13:48:54.386Z,20.15
2019-03-23T13:51:22.743Z,20.45
2019-03-23T13:53:51.097Z,17.92
2019-03-23T13:56:19.514Z,18.30
2019-03-23T13:58:47.942Z,17.30
2019-03-23T14:01:16.349Z,16.97
2019-03-23T14:03:44.821Z,16.12
2019-03-23T14:06:13.278Z,19.20
2019-03-23T14:08:41.737Z,18.55
2019-03-23T14:11:10.162Z,16.48
2019-03-23T14:13:38.616Z,19.12
2019-03-23T14:16:06.985Z,16.17
2019-03-23T14:18:35.895Z,16.65
2019-03-23T14:21:04.460Z,18.75
2019-03-23T14:23:32.953Z,16.62
2019-03-23T14:26:01.313Z,14.85
2019-03-23T14:28:29.761Z,15.03
2019-03-23T14:30:58.133Z,15.88
2019-03-23T14:33:26.576Z,16.25
2019-03-23T14:35:55.031Z,16.02
2019-03-23T14:38:23.413Z,15.13
2019-03-23T14:40:51.871Z,15.00
2019-03-23T14:43:20.208Z,14.20
2019-03-23T14:45:48.607Z,14.13
2019-03-23T14:48:17.013Z,14.35
2019-03-23T14:50:45.371Z,12.95
2019-03-23T14:53:14.821Z,14.30
2019-03-23T14:55:43.148Z,14.33
2019-03-23T14:58:11.556Z,12.47
2019-03-23T15:00:40.003Z,15.32
2019-03-23T15:03:08.358Z,14.60
2019-03-23T15:05:36.690Z,12.07
2019-03-23T15:08:05.146Z,12.90
2019-03-23T15:10:36.346Z,12.75
2019-03-23T15:13:04.746Z,11.60
2019-03-23T15:15:33.195Z,11.80
2019-03-23T15:18:01.518Z,12.95
2019-03-23T15:20:29.895Z,10.80
2019-03-23T15:22:58.350Z,11.12
2019-03-23T15:25:26.807Z,11.03
2019-03-23T15:27:55.276Z,10.95
2019-03-23T15:30:23.710Z,10.10
2019-03-23T15:32:52.071Z,7.78
2019-03-23T15:35:20.443Z,8.10
2019-03-23T15:37:48.904Z,8.53
2019-03-23T15:40:17.270Z,9.73
2019-03-23T15:43:05.197Z,8.28
2019-03-23T15:45:33.596Z,8.93
2019-03-23T15:48:07.583Z,8.50
2019-03-23T15:50:36.068Z,8.93
2019-03-23T15:53:04.756Z,8.25
2019-03-23T15:55:33.090Z,8.75
2019-03-23T15:58:01.477Z,8.10
2019-03-23T16:00:29.927Z,8.73
2019-03-23T16:02:58.289Z,9.68
2019-03-23T16:05:26.631Z,9.38
2019-03-23T16:07:55.036Z,8.00
2019-03-23T16:10:23.397Z,8.48
2019-03-23T16:12:51.746Z,8.73
2019-03-23T16:15:20.245Z,9.20
2019-03-23T16:17:48.596Z,9.50
2019-03-23T16:20:17.009Z,10.63
2019-03-23T16:22:45.450Z,10.28
2019-03-23T16:25:13.843Z,10.28
2019-03-23T16:27:42.225Z,10.55
2019-03-23T16:30:11.364Z,11.43
2019-03-23T16:32:39.668Z,10.15
2019-03-23T16:35:08.402Z,11.33
2019-03-23T16:37:36.837Z,10.65
2019-03-23T16:40:09.744Z,9.60
2019-03-23T16:42:45.261Z,11.45
2019-03-23T16:45:09.404Z,10.58
2019-03-23T16:47:37.975Z,9.78
2019-03-23T16:50:07.355Z,11.22
2019-03-23T16:52:36.944Z,11.83
2019-03-23T16:55:07.683Z,11.08
2019-03-23T16:57:36.101Z,10.35
2019-03-23T17:00:13.097Z,10.72
2019-03-23T17:02:41.479Z,11.00
2019-03-23T17:05:09.822Z,10.80
2019-03-23T17:07:38.285Z,9.85
2019-03-23T17:10:07.113Z,10.13
2019-03-23T17:12:35.668Z,10.55
2019-03-23T17:15:06.302Z,11.12
2019-03-23T17:17:34.777Z,11.18
2019-03-23T17:20:03.142Z,11.57
2019-03-23T17:22:31.621Z,11.93
2019-03-23T17:25:00.012Z,11.90
2019-03-23T17:27:28.383Z,13.08
2019-03-23T17:29:56.873Z,13.32
2019-03-23T17:32:25.320Z,12.70
2019-03-23T17:34:53.737Z,12.30
2019-03-23T17:37:22.169Z,13.05
2019-03-23T17:39:50.573Z,12.30
2019-03-23T17:42:18.933Z,12.50
2019-03-23T17:44:47.411Z,21.77
2019-03-23T17:47:15.767Z,13.83
2019-03-23T17:49:44.096Z,13.05
2019-03-23T17:52:12.531Z,13.78
2019-03-23T17:54:40.834Z,13.70
2019-03-23T17:57:09.132Z,12.75
2019-03-23T17:59:37.549Z,12.63
2019-03-23T18:02:05.945Z,12.05
2019-03-23T18:04:34.409Z,14.47
2019-03-23T18:07:02.768Z,13.35
2019-03-23T18:09:31.255Z,13.90
2019-03-23T18:11:59.753Z,13.38
2019-03-23T18:14:28.116Z,13.03
2019-03-23T18:16:56.484Z,13.88
2019-03-23T18:19:25.171Z,14.33
2019-03-23T18:21:53.534Z,14.78
2019-03-23T18:24:21.846Z,12.85
2019-03-23T18:26:50.314Z,14.30
2019-03-23T18:29:18.705Z,13.72
2019-03-23T18:31:47.188Z,15.65
2019-03-23T18:34:15.639Z,16.57
2019-03-23T18:36:44.057Z,15.75
2019-03-23T18:39:12.446Z,14.68
2019-03-23T18:41:40.910Z,15.23
2019-03-23T18:44:16.050Z,14.95
2019-03-23T18:46:39.327Z,14.70
2019-03-23T18:49:07.766Z,16.20
2019-03-23T18:51:36.138Z,16.20
2019-03-23T18:54:04.602Z,16.97
2019-03-23T18:56:33.019Z,16.65
2019-03-23T18:59:01.402Z,14.38
2019-03-23T19:01:29.864Z,16.37
2019-03-23T19:03:58.337Z,15.32
2019-03-23T19:06:26.731Z,16.77
2019-03-23T19:08:55.103Z,15.50
2019-03-23T19:11:24.552Z,16.23
2019-03-23T19:13:52.868Z,17.12
2019-03-23T19:16:21.219Z,19.05
2019-03-23T19:18:49.581Z,20.75
2019-03-23T19:21:18.086Z,21.15
2019-03-23T19:23:46.600Z,21.27
2019-03-23T19:26:15.021Z,18.92
2019-03-23T19:28:43.392Z,21.17
2019-03-23T19:31:11.761Z,19.37
2019-03-23T19:33:40.227Z,19.50
2019-03-23T19:36:08.690Z,18.55
2019-03-23T19:38:37.155Z,19.10
2019-03-23T19:41:05.742Z,17.75
2019-03-23T19:43:34.152Z,21.37
2019-03-23T19:46:02.624Z,88.33
2019-03-23T19:48:31.019Z,22.82
2019-03-23T19:50:59.574Z,19.52
2019-03-23T19:53:27.993Z,20.77
2019-03-23T19:55:56.449Z,21.95
2019-03-23T19:58:24.987Z,20.45
2019-03-23T20:00:53.461Z,18.55
2019-03-23T20:03:21.821Z,19.25
2019-03-23T20:05:50.221Z,16.65
2019-03-23T20:08:18.608Z,18.57
2019-03-23T20:10:47.038Z,19.35
2019-03-23T20:13:15.463Z,18.85
2019-03-23T20:15:43.948Z,19.20
2019-03-23T20:18:12.415Z,18.90
2019-03-23T20:20:40.952Z,17.30
2019-03-23T20:23:09.419Z,17.82
2019-03-23T20:25:39.701Z,17.45
2019-03-23T20:28:07.990Z,18.48
2019-03-23T20:30:37.594Z,19.17
2019-03-23T20:33:06.197Z,17.85
2019-03-23T20:35:34.637Z,18.50
2019-03-23T20:38:03.109Z,19.40
2019-03-23T20:40:31.573Z,19.75
2019-03-23T20:42:59.967Z,21.97
2019-03-23T20:45:29.440Z,20.45
2019-03-23T20:47:58.240Z,21.23
2019-03-23T20:50:26.946Z,21.73
2019-03-23T20:52:56.455Z,21.97
2019-03-23T20:55:27.247Z,22.52
2019-03-23T20:57:55.748Z,22.20
2019-03-23T21:00:24.152Z,23.57
2019-03-23T21:02:52.646Z,21.48
2019-03-23T21:05:21.114Z,23.38
2019-03-23T21:07:49.607Z,24.65
2019-03-23T21:10:18.167Z,22.15
2019-03-23T21:12:46.968Z,21.97
2019-03-23T21:15:15.524Z,21.73
2019-03-23T21:17:51.223Z,21.27
2019-03-23T21:20:13.992Z,18.82
2019-03-23T21:22:42.441Z,17.20
2019-03-23T21:25:10.881Z,16.90
2019-03-23T21:27:39.172Z,15.53
2019-03-23T21:30:12.918Z,15.32
2019-03-23T21:32:41.358Z,14.45
2019-03-23T21:35:09.827Z,13.88
2019-03-23T21:37:38.222Z,12.73
2019-03-23T21:40:06.729Z,13.93
2019-03-23T21:42:35.100Z,13.62
2019-03-23T21:45:05.444Z,13.08
2019-03-23T21:47:34.014Z,13.35
2019-03-23T21:50:02.588Z,12.68
2019-03-23T21:52:31.085Z,12.73
2019-03-23T21:54:59.718Z,11.63
2019-03-23T21:57:28.167Z,11.80
2019-03-23T21:59:56.689Z,11.83
2019-03-23T22:02:25.188Z,11.97
2019-03-23T22:04:53.738Z,11.65
2019-03-23T22:07:22.245Z,13.05
2019-03-23T22:09:50.761Z,12.40
2019-03-23T22:12:19.256Z,13.20
2019-03-23T22:14:47.635Z,12.68
2019-03-23T22:17:16.059Z,13.43
2019-03-23T22:20:05.496Z,12.73
2019-03-23T22:22:33.983Z,11.93
2019-03-23T22:25:02.370Z,13.38
2019-03-23T22:27:31.834Z,12.88
2019-03-23T22:30:00.390Z,11.95
2019-03-23T22:32:28.805Z,11.15
2019-03-23T22:34:57.297Z,11.45
2019-03-23T22:37:25.653Z,10.72
2019-03-23T22:39:54.126Z,11.08
2019-03-23T22:42:22.582Z,11.60
2019-03-23T22:44:52.778Z,10.78
2019-03-23T22:47:21.289Z,9.68
2019-03-23T22:49:49.840Z,9.63
2019-03-23T22:52:18.411Z,9.58
2019-03-23T22:54:46.793Z,10.03
2019-03-23T22:57:15.329Z,10.58
2019-03-23T22:59:43.799Z,10.32
2019-03-23T23:02:12.276Z,8.68
2019-03-23T23:04:40.753Z,9.88
2019-03-23T23:07:09.145Z,9.53
2019-03-23T23:09:37.655Z,10.32
2019-03-23T23:12:25.532Z,10.63
2019-03-23T23:15:03.985Z,9.90
2019-03-23T23:17:24.007Z,9.75
2019-03-23T23:19:52.517Z,9.25
2019-03-23T23:22:20.907Z,10.00
2019-03-23T23:24:49.288Z,10.20
2019-03-23T23:27:17.873Z,10.60
2019-03-23T23:29:46.338Z,10.32
2019-03-23T23:32:14.692Z,10.15
2019-03-23T23:34:43.161Z,9.70
2019-03-23T23:37:11.627Z,11.48
2019-03-23T23:39:40.056Z,9.65
2019-03-23T23:42:08.505Z,10.38
2019-03-23T23:44:37.134Z,10.98
2019-03-23T23:47:05.484Z,9.88
2019-03-23T23:49:33.963Z,10.20
2019-03-23T23:52:02.414Z,10.00
2019-03-23T23:54:30.892Z,9.58
2019-03-23T23:57:00.409Z,10.25
2019-03-23T23:59:28.811Z,9.58
